Time;durP1;ratioP1;P1;durP2;ratioP2;P2;SDS_P1;SDS_P2;PMS_P1;PMS_P2;Temp;Humidity;BMP_temperature;BMP_pressure;BME280_temperature;BME280_humidity;BME280_pressure;Samples;Min_cycle;Max_cycle;Signal;HPM_P1;HPM_P2
2023/02/17 00:01:57;;;;;;;;;;;;;;;9.00;100.00;-18270.47;5000020;28;19929;-81
2023/02/17 00:04:23;;;;;;;;;;;;;;;9.02;100.00;-18271.03;5003754;28;19964;-81
2023/02/17 00:06:48;;;;;;;;;;;;;;;9.00;100.00;-18270.47;5000768;28;19929;-82
2023/02/17 00:09:13;;;;;;;;;;;;;;;9.01;100.00;-18270.63;5002340;28;19921;-80
2023/02/17 00:11:38;;;;;;;;;;;;;;;9.01;100.00;-18270.75;5002942;28;19937;-82
2023/02/17 00:14:04;;;;;;;;;;;;;;;9.04;100.00;-18271.44;5003923;28;20021;-82
2023/02/17 00:16:29;;;;;;;;;;;;;;;9.00;100.00;-18270.47;4996654;28;19928;-82
2023/02/17 00:18:59;;;;;;;;;;;;;;;9.00;100.00;-18270.47;5004340;28;19965;-82
2023/02/17 00:21:25;;;;;;;;;;;;;;;9.00;100.00;-18270.47;4999934;28;19947;-80
2023/02/17 00:23:51;;;;;;;;;;;;;;;9.00;100.00;-18270.34;5000149;28;20491;-82
2023/02/17 00:26:17;;;;;;;;;;;;;;;9.03;100.00;-18271.16;5001549;28;19921;-81
2023/02/17 00:28:42;;;;;;;;;;;;;;;9.02;100.00;-18270.91;5000734;28;19929;-81
2023/02/17 00:31:09;;;;;;;;;;;;;;;9.02;100.00;-18271.03;5004062;28;19976;-81
2023/02/17 00:33:35;;;;;;;;;;;;;;;9.01;100.00;-18270.63;4999207;28;19921;-80
2023/02/17 00:36:05;;;;;;;;;;;;;;;9.01;100.00;-18270.75;5003435;28;19929;-81
2023/02/17 00:38:30;;;;;;;;;;;;;;;8.99;100.00;-18270.06;4999875;28;20013;-81
2023/02/17 00:40:55;;;;;;;;;;;;;;;9.03;100.00;-18271.16;5002918;28;20039;-81
2023/02/17 00:43:21;;;;;;;;;;;;;;;9.06;100.00;-18272.00;5002955;28;19921;-81
2023/02/17 00:45:46;;;;;;;;;;;;;;;9.08;100.00;-18272.41;5002546;28;19922;-80
2023/02/17 00:48:11;;;;;;;;;;;;;;;9.09;100.00;-18272.81;5002891;28;19933;-81
2023/02/17 00:50:36;;;;;;;;;;;;;;;9.06;100.00;-18272.00;4994275;28;19926;-82
2023/02/17 00:53:01;;;;;;;;;;;;;;;9.10;100.00;-18272.97;5002014;28;19936;-81
2023/02/17 00:55:27;;;;;;;;;;;;;;;9.10;100.00;-18272.97;5005149;28;20012;-81
2023/02/17 00:57:52;;;;;;;;;;;;;;;9.04;100.00;-18271.59;5009164;28;19930;-82
2023/02/17 01:00:17;;;;;;;;;;;;;;;9.09;100.00;-18272.69;5005899;28;20160;-82
2023/02/17 01:02:43;;;;;;;;;;;;;;;9.10;100.00;-18273.09;5002605;28;20585;-81
2023/02/17 01:05:08;;;;;;;;;;;;;;;9.11;100.00;-18273.22;5007074;28;20306;-81
2023/02/17 01:07:33;;;;;;;;;;;;;;;9.12;100.00;-18273.50;5007846;28;19925;-80
2023/02/17 01:09:58;;;;;;;;;;;;;;;9.11;100.00;-18273.38;5005401;28;19969;-81
2023/02/17 01:12:24;;;;;;;;;;;;;;;9.08;100.00;-18272.53;5005052;28;19925;-81
2023/02/17 01:14:49;;;;;;;;;;;;;;;9.09;100.00;-18272.81;5003042;28;19971;-82
2023/02/17 01:17:14;;;;;;;;;;;;;;;9.11;100.00;-18273.38;5009075;28;19922;-81
2023/02/17 01:19:39;;;;;;;;;;;;;;;9.12;100.00;-18273.50;5003801;28;19929;-82
2023/02/17 01:22:05;;;;;;;;;;;;;;;9.11;100.00;-18273.38;5002167;28;19933;-81
2023/02/17 01:24:30;;;;;;;;;;;;;;;9.12;100.00;-18273.66;5002849;28;20016;-82
2023/02/17 01:26:55;;;;;;;;;;;;;;;9.14;100.00;-18274.19;5007327;28;20567;-81
2023/02/17 01:29:20;;;;;;;;;;;;;;;9.14;100.00;-18274.19;5004361;28;20008;-81
2023/02/17 01:31:46;;;;;;;;;;;;;;;9.15;100.00;-18274.34;5004964;28;19922;-80
2023/02/17 01:34:11;;;;;;;;;;;;;;;9.15;100.00;-18274.47;5009680;28;20288;-82
2023/02/17 01:36:37;;;;;;;;;;;;;;;9.14;100.00;-18274.19;5004222;28;19997;-81
2023/02/17 01:39:02;;;;;;;;;;;;;;;9.16;100.00;-18274.63;5005593;28;19929;-81
2023/02/17 01:41:27;;;;;;;;;;;;;;;9.18;100.00;-18275.16;5008936;28;19928;-82
2023/02/17 01:44:03;;;;;;;;;;;;;;;9.19;100.00;-18275.44;5007886;28;19937;-81
2023/02/17 01:46:30;;;;;;;;;;;;;;;9.20;100.00;-18275.72;5003905;28;19926;-83
2023/02/17 01:48:56;;;;;;;;;;;;;;;9.18;100.00;-18275.31;5003689;28;20307;-82
2023/02/17 01:51:25;;;;;;;;;;;;;;;9.21;100.00;-18276.13;5004764;28;19983;-82
2023/02/17 01:53:56;;;;;;;;;;;;;;;9.22;100.00;-18276.25;5009142;28;19922;-83
2023/02/17 01:56:23;;;;;;;;;;;;;;;9.20;100.00;-18275.84;5003430;28;20280;-83
2023/02/17 01:58:52;;;;;;;;;;;;;;;9.23;100.00;-18276.66;5008099;28;19953;-83
2023/02/17 02:01:18;;;;;;;;;;;;;;;9.22;100.00;-18276.25;5006491;28;20358;-82
2023/02/17 02:03:43;;;;;;;;;;;;;;;9.22;100.00;-18276.41;5010001;28;19927;-82
2023/02/17 02:06:13;;;;;;;;;;;;;;;9.23;100.00;-18276.53;5008555;28;19961;-83
2023/02/17 02:08:54;;;;;;;;;;;;;;;9.22;100.00;-18276.25;5007074;28;19925;-81
2023/02/17 02:11:20;;;;;;;;;;;;;;;9.24;100.00;-18276.94;5007799;28;19921;-82
2023/02/17 02:13:45;;;;;;;;;;;;;;;9.24;100.00;-18276.81;5002032;28;19927;-81
2023/02/17 02:16:24;;;;;;;;;;;;;;;9.24;100.00;-18276.94;5000186;28;19933;-81
2023/02/17 02:18:52;;;;;;;;;;;;;;;9.21;100.00;-18276.13;5000682;28;20383;-81
2023/02/17 02:21:32;;;;;;;;;;;;;;;9.23;100.00;-18276.66;5001191;28;19956;-83
2023/02/17 02:24:07;;;;;;;;;;;;;;;9.25;100.00;-18277.22;4998649;28;19925;-82
2023/02/17 02:26:51;;;;;;;;;;;;;;;9.27;100.00;-18277.78;5004382;28;19936;-82
2023/02/17 02:29:35;;;;;;;;;;;;;;;9.27;100.00;-18277.78;5004134;28;20044;-82
2023/02/17 02:32:03;;;;;;;;;;;;;;;9.28;100.00;-18277.91;5014265;28;19980;-83
2023/02/17 02:34:37;;;;;;;;;;;;;;;9.30;100.00;-18278.31;5001736;28;19976;-81
2023/02/17 02:37:12;;;;;;;;;;;;;;;9.32;100.00;-18278.88;5001177;28;20470;-81
2023/02/17 02:39:41;;;;;;;;;;;;;;;9.30;100.00;-18278.31;5002505;28;19921;-80
2023/02/17 02:42:09;;;;;;;;;;;;;;;9.33;100.00;-18279.28;5003018;28;19933;-80
2023/02/17 02:44:34;;;;;;;;;;;;;;;9.35;100.00;-18279.69;5003440;28;19948;-81
2023/02/17 02:47:01;;;;;;;;;;;;;;;9.36;100.00;-18279.97;5003895;28;20168;-82
2023/02/17 02:49:28;;;;;;;;;;;;;;;9.35;100.00;-18279.84;5003316;28;19996;-81
2023/02/17 02:52:12;;;;;;;;;;;;;;;9.37;100.00;-18280.25;5003563;28;19936;-83
2023/02/17 02:54:48;;;;;;;;;;;;;;;9.35;100.00;-18279.84;5003593;28;21592;-82
2023/02/17 02:57:38;;;;;;;;;;;;;;;9.38;100.00;-18280.66;5003312;28;19987;-81
2023/02/17 03:00:12;;;;;;;;;;;;;;;9.37;100.00;-18280.38;5014270;28;19926;-82
2023/02/17 03:02:56;;;;;;;;;;;;;;;9.41;100.00;-18281.34;5000604;28;19983;-81
2023/02/17 03:05:31;;;;;;;;;;;;;;;9.41;100.00;-18281.50;4999361;28;19928;-82
2023/02/17 03:08:15;;;;;;;;;;;;;;;9.40;100.00;-18281.06;5001119;28;19961;-81
2023/02/17 03:10:45;;;;;;;;;;;;;;;9.40;100.00;-18281.22;5001957;28;19999;-81
2023/02/17 03:13:10;;;;;;;;;;;;;;;9.41;100.00;-18281.34;5001337;28;19921;-81
2023/02/17 03:15:36;;;;;;;;;;;;;;;9.41;100.00;-18281.34;5001026;28;19976;-82
2023/02/17 03:18:01;;;;;;;;;;;;;;;9.39;100.00;-18280.81;5000941;28;20036;-82
2023/02/17 03:20:29;;;;;;;;;;;;;;;9.41;100.00;-18281.50;4998598;28;20383;-81
2023/02/17 03:22:54;;;;;;;;;;;;;;;9.43;100.00;-18282.03;5000131;28;19921;-81
2023/02/17 03:25:20;;;;;;;;;;;;;;;9.43;100.00;-18282.03;5006884;28;19932;-83
2023/02/17 03:27:45;;;;;;;;;;;;;;;9.44;100.00;-18282.19;5005049;28;19925;-82
2023/02/17 03:30:11;;;;;;;;;;;;;;;9.41;100.00;-18281.34;5007646;28;20392;-83
2023/02/17 03:32:36;;;;;;;;;;;;;;;9.42;100.00;-18281.63;5005824;28;19928;-82
2023/02/17 03:35:02;;;;;;;;;;;;;;;9.44;100.00;-18282.19;5005530;28;19968;-81
2023/02/17 03:37:27;;;;;;;;;;;;;;;9.45;100.00;-18282.59;5006506;28;19968;-82
2023/02/17 03:39:52;;;;;;;;;;;;;;;9.47;100.00;-18283.00;5008155;28;19937;-82
2023/02/17 03:42:18;;;;;;;;;;;;;;;9.45;100.00;-18282.59;5006513;28;19924;-81
2023/02/17 03:44:43;;;;;;;;;;;;;;;9.45;100.00;-18282.44;4994562;28;19932;-82
2023/02/17 03:47:08;;;;;;;;;;;;;;;9.46;100.00;-18282.88;4997504;28;19926;-82
2023/02/17 03:49:33;;;;;;;;;;;;;;;9.45;100.00;-18282.44;5004023;28;19953;-82
2023/02/17 03:51:58;;;;;;;;;;;;;;;9.45;100.00;-18282.44;5007486;28;19928;-82
2023/02/17 03:54:25;;;;;;;;;;;;;;;9.47;100.00;-18283.00;5011494;28;19917;-81
2023/02/17 03:56:50;;;;;;;;;;;;;;;9.48;100.00;-18283.41;5006038;28;19922;-81
2023/02/17 03:59:15;;;;;;;;;;;;;;;9.49;100.00;-18283.69;5017970;28;20685;-83
2023/02/17 04:01:41;;;;;;;;;;;;;;;9.50;100.00;-18283.81;5002162;28;19961;-82
2023/02/17 04:04:06;;;;;;;;;;;;;;;9.49;100.00;-18283.56;4999740;28;19925;-82
2023/02/17 04:06:31;;;;;;;;;;;;;;;9.44;100.00;-18282.31;5004461;28;19944;-82
2023/02/17 04:08:57;;;;;;;;;;;;;;;9.46;100.00;-18282.88;5006941;28;20495;-82
2023/02/17 04:11:23;;;;;;;;;;;;;;;9.45;100.00;-18282.44;5005207;28;20382;-81
2023/02/17 04:13:48;;;;;;;;;;;;;;;9.45;100.00;-18282.59;5007573;28;19983;-83
2023/02/17 04:16:13;;;;;;;;;;;;;;;9.43;100.00;-18281.91;5007655;28;19959;-82
2023/02/17 04:18:39;;;;;;;;;;;;;;;9.43;100.00;-18281.91;4999149;28;19925;-81
2023/02/17 04:21:04;;;;;;;;;;;;;;;9.44;100.00;-18282.31;5002113;28;19921;-83
2023/02/17 04:23:30;;;;;;;;;;;;;;;9.44;100.00;-18282.19;5012199;28;19928;-83
2023/02/17 04:25:55;;;;;;;;;;;;;;;9.44;100.00;-18282.19;5012648;28;19925;-81
2023/02/17 04:28:21;;;;;;;;;;;;;;;9.41;100.00;-18281.34;5012281;28;19957;-82
2023/02/17 04:30:47;;;;;;;;;;;;;;;9.41;100.00;-18281.34;5009540;28;20417;-82
2023/02/17 04:33:12;;;;;;;;;;;;;;;9.41;100.00;-18281.50;5005293;28;19921;-82
2023/02/17 04:35:37;;;;;;;;;;;;;;;9.42;100.00;-18281.75;5008692;28;19921;-82
2023/02/17 04:38:03;;;;;;;;;;;;;;;9.41;100.00;-18281.50;5004480;28;19922;-81
2023/02/17 04:40:29;;;;;;;;;;;;;;;9.42;100.00;-18281.63;5010770;28;19996;-83
2023/02/17 04:42:54;;;;;;;;;;;;;;;9.39;100.00;-18280.81;5009165;28;20005;-82
2023/02/17 04:45:19;;;;;;;;;;;;;;;9.41;100.00;-18281.34;5008420;28;19929;-83
2023/02/17 04:47:44;;;;;;;;;;;;;;;9.39;100.00;-18280.81;5007282;28;19979;-83
2023/02/17 04:50:10;;;;;;;;;;;;;;;9.39;100.00;-18280.81;5011069;28;19928;-82
2023/02/17 04:52:35;;;;;;;;;;;;;;;9.42;100.00;-18281.75;5008274;28;19968;-82
2023/02/17 04:55:01;;;;;;;;;;;;;;;9.43;100.00;-18281.91;5009286;28;19921;-83
2023/02/17 04:57:26;;;;;;;;;;;;;;;9.42;100.00;-18281.63;5009289;28;20429;-81
2023/02/17 04:59:51;;;;;;;;;;;;;;;9.42;100.00;-18281.63;5012363;28;19917;-82
2023/02/17 05:02:16;;;;;;;;;;;;;;;9.44;100.00;-18282.19;5012980;28;19918;-81
2023/02/17 05:04:42;;;;;;;;;;;;;;;9.44;100.00;-18282.19;5011206;28;19929;-82
2023/02/17 05:07:07;;;;;;;;;;;;;;;9.44;100.00;-18282.31;5011097;28;19976;-82
2023/02/17 05:09:32;;;;;;;;;;;;;;;9.44;100.00;-18282.19;5011218;28;19964;-83
2023/02/17 05:11:58;;;;;;;;;;;;;;;9.45;100.00;-18282.59;5006946;28;20021;-82
2023/02/17 05:14:23;;;;;;;;;;;;;;;9.46;100.00;-18282.88;5010890;28;19925;-83
2023/02/17 05:16:48;;;;;;;;;;;;;;;9.43;100.00;-18282.03;5010376;28;19918;-82
2023/02/17 05:19:13;;;;;;;;;;;;;;;9.42;100.00;-18281.63;5012126;28;19918;-82
2023/02/17 05:21:38;;;;;;;;;;;;;;;9.42;100.00;-18281.75;5000991;28;20375;-81
2023/02/17 05:24:04;;;;;;;;;;;;;;;9.41;100.00;-18281.34;5009737;28;19917;-82
2023/02/17 05:26:29;;;;;;;;;;;;;;;9.41;100.00;-18281.34;5005576;28;19925;-81
2023/02/17 05:28:54;;;;;;;;;;;;;;;9.43;100.00;-18282.03;5007862;28;20374;-83
2023/02/17 05:31:20;;;;;;;;;;;;;;;9.47;100.00;-18283.00;5006663;28;19980;-82
2023/02/17 05:33:45;;;;;;;;;;;;;;;9.48;100.00;-18283.28;5006995;28;20521;-82
2023/02/17 05:36:11;;;;;;;;;;;;;;;9.48;100.00;-18283.41;5010993;28;19925;-83
2023/02/17 05:38:36;;;;;;;;;;;;;;;9.47;100.00;-18283.13;5014065;28;20121;-83
2023/02/17 05:41:02;;;;;;;;;;;;;;;9.48;100.00;-18283.41;5000664;28;19929;-82
2023/02/17 05:43:27;;;;;;;;;;;;;;;9.49;100.00;-18283.69;5008477;28;19922;-82
2023/02/17 05:45:53;;;;;;;;;;;;;;;9.48;100.00;-18283.28;5007022;28;19925;-83
2023/02/17 05:48:18;;;;;;;;;;;;;;;9.51;100.00;-18283.97;5002214;28;20319;-83
2023/02/17 05:50:43;;;;;;;;;;;;;;;9.49;100.00;-18283.69;5005241;28;19921;-83
2023/02/17 05:53:09;;;;;;;;;;;;;;;9.51;100.00;-18284.09;5008388;28;19933;-83
2023/02/17 05:55:34;;;;;;;;;;;;;;;9.48;100.00;-18283.28;5008088;28;20401;-82
2023/02/17 05:57:59;;;;;;;;;;;;;;;9.50;100.00;-18283.81;4999286;28;20016;-83
2023/02/17 06:00:24;;;;;;;;;;;;;;;9.53;100.00;-18284.50;5007142;28;20383;-83
2023/02/17 06:02:50;;;;;;;;;;;;;;;9.51;100.00;-18284.09;5011637;28;19972;-81
2023/02/17 06:05:15;;;;;;;;;;;;;;;9.52;100.00;-18284.38;5015675;28;19921;-83
2023/02/17 06:07:41;;;;;;;;;;;;;;;9.52;100.00;-18284.38;5004227;28;19933;-82
2023/02/17 06:10:07;;;;;;;;;;;;;;;9.52;100.00;-18284.38;5015226;28;19929;-82
2023/02/17 06:12:32;;;;;;;;;;;;;;;9.52;100.00;-18284.38;5009448;28;19933;-81
2023/02/17 06:14:57;;;;;;;;;;;;;;;9.49;100.00;-18283.56;5007189;28;19953;-82
2023/02/17 06:17:23;;;;;;;;;;;;;;;9.47;100.00;-18283.00;5009969;28;19921;-82
2023/02/17 06:19:48;;;;;;;;;;;;;;;9.46;100.00;-18282.72;5020574;28;19921;-82
2023/02/17 06:22:13;;;;;;;;;;;;;;;9.44;100.00;-18282.31;5019466;28;20415;-81
2023/02/17 06:24:39;;;;;;;;;;;;;;;9.45;100.00;-18282.44;5019798;28;19925;-82
2023/02/17 06:27:04;;;;;;;;;;;;;;;9.43;100.00;-18281.91;5024013;28;19925;-82
2023/02/17 06:29:29;;;;;;;;;;;;;;;9.40;100.00;-18281.06;5015931;28;19922;-82
2023/02/17 06:31:54;;;;;;;;;;;;;;;9.35;100.00;-18279.84;5004774;28;20395;-83
2023/02/17 06:34:20;;;;;;;;;;;;;;;9.35;100.00;-18279.84;5008252;28;19929;-83
2023/02/17 06:36:45;;;;;;;;;;;;;;;9.34;100.00;-18279.44;5005416;28;19936;-82
2023/02/17 06:39:10;;;;;;;;;;;;;;;9.32;100.00;-18278.88;5007865;28;20405;-82
2023/02/17 06:41:35;;;;;;;;;;;;;;;9.22;100.00;-18276.41;5003863;28;20446;-83
2023/02/17 06:44:01;;;;;;;;;;;;;;;9.18;100.00;-18275.31;5006881;28;19929;-82
2023/02/17 06:46:26;;;;;;;;;;;;;;;9.17;100.00;-18275.03;5006296;28;19921;-83
2023/02/17 06:48:51;;;;;;;;;;;;;;;9.17;100.00;-18275.03;5006813;28;19926;-82
2023/02/17 06:51:16;;;;;;;;;;;;;;;9.21;100.00;-18276.00;5008223;28;20012;-82
2023/02/17 06:53:42;;;;;;;;;;;;;;;9.21;100.00;-18276.13;5005084;28;19929;-82
2023/02/17 06:56:07;;;;;;;;;;;;;;;9.22;100.00;-18276.25;5004366;28;19921;-82
2023/02/17 06:58:34;;;;;;;;;;;;;;;9.22;100.00;-18276.25;5009187;28;20349;-82
2023/02/17 07:00:59;;;;;;;;;;;;;;;9.22;100.00;-18276.41;5010895;28;19928;-81
2023/02/17 07:03:25;;;;;;;;;;;;;;;9.25;100.00;-18277.09;5010175;28;19953;-81
2023/02/17 07:05:50;;;;;;;;;;;;;;;9.28;100.00;-18277.91;5015214;28;19964;-82
2023/02/17 07:08:15;;;;;;;;;;;;;;;9.28;100.00;-18277.91;5017105;28;19929;-82
2023/02/17 07:10:41;;;;;;;;;;;;;;;9.31;100.00;-18278.59;5006842;28;19941;-82
2023/02/17 07:13:06;;;;;;;;;;;;;;;9.31;100.00;-18278.59;5011794;28;19922;-82
2023/02/17 07:15:31;;;;;;;;;;;;;;;9.33;100.00;-18279.16;5006968;28;19925;-81
2023/02/17 07:17:56;;;;;;;;;;;;;;;9.33;100.00;-18279.16;4996659;28;19925;-83
2023/02/17 07:20:22;;;;;;;;;;;;;;;9.34;100.00;-18279.44;5002787;28;19918;-81
2023/02/17 07:22:47;;;;;;;;;;;;;;;9.34;100.00;-18279.44;5002589;28;19922;-81
2023/02/17 07:25:12;;;;;;;;;;;;;;;9.35;100.00;-18279.69;5002843;28;19926;-81
2023/02/17 07:27:37;;;;;;;;;;;;;;;9.39;100.00;-18280.81;5007656;28;19927;-82
2023/02/17 07:30:03;;;;;;;;;;;;;;;9.40;100.00;-18281.22;5009895;28;19961;-81
2023/02/17 07:32:29;;;;;;;;;;;;;;;9.42;100.00;-18281.63;5007514;28;19928;-81
2023/02/17 07:34:54;;;;;;;;;;;;;;;9.43;100.00;-18281.91;5008961;28;20366;-81
2023/02/17 07:37:20;;;;;;;;;;;;;;;9.44;100.00;-18282.31;5009904;28;19924;-81
2023/02/17 07:39:46;;;;;;;;;;;;;;;9.44;100.00;-18282.31;5009768;28;19932;-82
2023/02/17 07:42:11;;;;;;;;;;;;;;;9.48;100.00;-18283.28;5010560;28;19917;-82
2023/02/17 07:44:36;;;;;;;;;;;;;;;9.50;100.00;-18283.81;5010051;28;20364;-82
2023/02/17 07:47:02;;;;;;;;;;;;;;;9.51;100.00;-18283.97;5003715;28;19925;-80
2023/02/17 07:49:27;;;;;;;;;;;;;;;9.49;100.00;-18283.56;5002863;28;20012;-81
2023/02/17 07:51:52;;;;;;;;;;;;;;;9.48;100.00;-18283.41;5009099;28;19917;-81
2023/02/17 07:54:18;;;;;;;;;;;;;;;9.48;100.00;-18283.41;5009655;28;20349;-81
2023/02/17 07:56:43;;;;;;;;;;;;;;;9.50;100.00;-18283.81;5008711;28;19917;-81
2023/02/17 07:59:12;;;;;;;;;;;;;;;9.49;100.00;-18283.69;4997008;28;20501;-81
2023/02/17 08:01:38;;;;;;;;;;;;;;;9.53;100.00;-18284.50;4998944;28;20749;-82
2023/02/17 08:04:03;;;;;;;;;;;;;;;9.53;100.00;-18284.66;5009740;28;20016;-81
2023/02/17 08:06:29;;;;;;;;;;;;;;;9.54;100.00;-18284.94;5004074;28;19928;-81
2023/02/17 08:14:23;;;;;;;;;;;;;;;9.61;100.00;-18286.72;4998335;28;19925;-82
2023/02/17 08:16:48;;;;;;;;;;;;;;;9.62;100.00;-18287.00;5005139;28;20282;-81
2023/02/17 08:19:14;;;;;;;;;;;;;;;9.63;100.00;-18287.41;5019157;28;19917;-81
2023/02/17 08:21:39;;;;;;;;;;;;;;;9.59;100.00;-18286.31;5010481;28;19972;-81
2023/02/17 08:24:04;;;;;;;;;;;;;;;9.67;100.00;-18288.50;4999017;28;19968;-81
2023/02/17 08:26:30;;;;;;;;;;;;;;;9.67;100.00;-18288.50;5007645;28;19925;-83
2023/02/17 08:28:55;;;;;;;;;;;;;;;9.70;100.00;-18289.19;5008737;28;20464;-82
2023/02/17 08:31:24;;;;;;;;;;;;;;;9.70;100.00;-18289.31;5009376;28;19924;-83
2023/02/17 08:33:50;;;;;;;;;;;;;;;9.72;100.00;-18289.75;5008949;28;19983;-81
2023/02/17 08:36:16;;;;;;;;;;;;;;;9.76;100.00;-18290.69;5009353;28;20606;-82
2023/02/17 08:38:41;;;;;;;;;;;;;;;9.77;100.00;-18290.97;5008787;28;19917;-82
2023/02/17 08:41:13;;;;;;;;;;;;;;;9.81;100.00;-18292.06;5008967;28;19918;-83
2023/02/17 08:43:39;;;;;;;;;;;;;;;9.77;100.00;-18290.97;5008609;28;19945;-83
2023/02/17 08:46:06;;;;;;;;;;;;;;;9.80;100.00;-18291.94;5009008;28;19917;-81
2023/02/17 08:48:32;;;;;;;;;;;;;;;9.84;100.00;-18293.03;5005932;28;19929;-82
2023/02/17 08:50:57;;;;;;;;;;;;;;;9.88;100.00;-18294.00;5003466;28;20402;-82
2023/02/17 08:53:22;;;;;;;;;;;;;;;9.89;100.00;-18294.41;5000462;28;19918;-82
2023/02/17 08:55:47;;;;;;;;;;;;;;;9.89;100.00;-18294.28;5003425;28;19918;-83
2023/02/17 08:58:12;;;;;;;;;;;;;;;9.92;100.00;-18295.09;5009106;28;19928;-83
2023/02/17 09:00:38;;;;;;;;;;;;;;;9.93;100.00;-18295.50;5006167;28;19918;-82
2023/02/17 09:03:03;;;;;;;;;;;;;;;9.97;100.00;-18296.47;5003875;28;19921;-82
2023/02/17 09:05:28;;;;;;;;;;;;;;;10.01;100.00;-18297.44;4988707;28;20449;-81
2023/02/17 09:07:54;;;;;;;;;;;;;;;10.05;100.00;-18298.69;5006640;28;19928;-81
2023/02/17 09:10:19;;;;;;;;;;;;;;;10.06;100.00;-18298.81;4998269;28;19929;-82
2023/02/17 09:12:44;;;;;;;;;;;;;;;10.09;100.00;-18299.63;5006097;28;20383;-82
2023/02/17 09:15:09;;;;;;;;;;;;;;;10.11;100.00;-18300.19;5006831;28;20284;-82
2023/02/17 09:17:37;;;;;;;;;;;;;;;10.14;100.00;-18301.00;5007863;28;19922;-82
2023/02/17 09:20:03;;;;;;;;;;;;;;;10.16;100.00;-18301.69;5002435;28;19952;-81
2023/02/17 09:22:28;;;;;;;;;;;;;;;10.19;100.00;-18302.25;5011860;28;20891;-82
2023/02/17 09:24:53;;;;;;;;;;;;;;;10.22;100.00;-18303.06;5008493;28;19947;-82
2023/02/17 09:27:18;;;;;;;;;;;;;;;10.20;100.00;-18302.53;5012099;28;19997;-81
2023/02/17 09:29:44;;;;;;;;;;;;;;;10.22;100.00;-18303.06;5009411;28;19925;-81
2023/02/17 09:32:09;;;;;;;;;;;;;;;10.25;100.00;-18303.91;5000781;28;19963;-82
2023/02/17 09:34:35;;;;;;;;;;;;;;;10.27;100.00;-18304.59;5007710;28;19917;-83
2023/02/17 09:37:00;;;;;;;;;;;;;;;10.31;100.00;-18305.69;4999853;28;20435;-82
2023/02/17 09:39:26;;;;;;;;;;;;;;;10.30;100.00;-18305.41;5008699;28;20012;-83
2023/02/17 09:41:53;;;;;;;;;;;;;;;10.34;100.00;-18306.50;5007804;28;20371;-82
2023/02/17 09:44:19;;;;;;;;;;;;;;;10.40;100.00;-18308.03;5005628;28;19961;-81
2023/02/17 09:46:49;;;;;;;;;;;;;;;10.43;100.00;-18308.72;5010966;28;20354;-81
2023/02/17 09:49:16;;;;;;;;;;;;;;;10.44;100.00;-18309.13;5011657;28;19944;-81
2023/02/17 09:51:44;;;;;;;;;;;;;;;10.48;100.00;-18310.22;5000651;28;20288;-82
2023/02/17 09:54:09;;;;;;;;;;;;;;;10.47;100.00;-18309.94;5006784;28;19968;-81
2023/02/17 09:56:40;;;;;;;;;;;;;;;10.49;100.00;-18310.50;5009882;28;19922;-81
2023/02/17 09:59:24;;;;;;;;;;;;;;;10.54;100.00;-18311.75;5003199;28;19918;-81
2023/02/17 10:01:50;;;;;;;;;;;;;;;10.57;100.00;-18312.56;5003890;28;19917;-82
2023/02/17 10:04:20;;;;;;;;;;;;;;;10.58;100.00;-18312.84;5010607;28;20571;-81
2023/02/17 10:06:47;;;;;;;;;;;;;;;10.62;100.00;-18313.94;5007951;28;19932;-82
2023/02/17 10:09:20;;;;;;;;;;;;;;;10.66;100.00;-18315.03;5009310;28;19929;-81
2023/02/17 10:11:59;;;;;;;;;;;;;;;10.69;100.00;-18315.84;5022593;28;19921;-81
2023/02/17 10:14:31;;;;;;;;;;;;;;;10.75;100.00;-18317.50;5006495;28;19997;-82
2023/02/17 10:17:16;;;;;;;;;;;;;;;10.79;100.00;-18318.47;5001256;28;20382;-81
2023/02/17 10:19:50;;;;;;;;;;;;;;;10.81;100.00;-18319.00;5005238;28;19932;-82
2023/02/17 10:22:20;;;;;;;;;;;;;;;10.85;100.00;-18320.13;4994332;28;19929;-82
2023/02/17 10:24:45;;;;;;;;;;;;;;;10.86;100.00;-18320.25;5014052;28;19921;-83
2023/02/17 10:27:11;;;;;;;;;;;;;;;10.88;100.00;-18320.94;5006923;28;19987;-80
2023/02/17 10:29:36;;;;;;;;;;;;;;;10.90;100.00;-18321.34;5003995;28;19925;-82
2023/02/17 10:32:04;;;;;;;;;;;;;;;10.94;100.00;-18322.59;5006437;28;19929;-80
2023/02/17 10:34:32;;;;;;;;;;;;;;;10.95;100.00;-18322.88;5004291;28;19922;-80
2023/02/17 10:37:12;;;;;;;;;;;;;;;10.93;100.00;-18322.19;5014141;28;19945;-83
2023/02/17 10:39:43;;;;;;;;;;;;;;;10.95;100.00;-18322.72;5002833;28;19952;-81
2023/02/17 10:42:26;;;;;;;;;;;;;;;10.95;100.00;-18322.72;5014986;28;19925;-81
2023/02/17 10:44:53;;;;;;;;;;;;;;;11.01;100.00;-18324.50;5010368;28;19917;-81
2023/02/17 10:47:19;;;;;;;;;;;;;;;11.01;100.00;-18324.50;5012216;28;20383;-84
2023/02/17 10:49:48;;;;;;;;;;;;;;;11.03;100.00;-18325.06;5012702;28;20310;-82
2023/02/17 10:52:18;;;;;;;;;;;;;;;11.07;100.00;-18326.16;5007412;28;19921;-82
2023/02/17 10:54:49;;;;;;;;;;;;;;;11.09;100.00;-18326.44;5009462;28;20406;-80
2023/02/17 10:57:16;;;;;;;;;;;;;;;11.10;100.00;-18326.72;5010851;28;19918;-82
2023/02/17 10:59:44;;;;;;;;;;;;;;;11.13;100.00;-18327.53;5007473;28;19921;-79
2023/02/17 11:02:29;;;;;;;;;;;;;;;11.17;100.00;-18328.63;5008873;28;20449;-83
2023/02/17 11:04:54;;;;;;;;;;;;;;;11.20;100.00;-18329.47;4968763;28;20077;-82
2023/02/17 11:07:25;;;;;;;;;;;;;;;11.22;100.00;-18330.00;5021900;28;20577;-80
2023/02/17 11:09:53;;;;;;;;;;;;;;;11.18;100.00;-18328.91;5010053;28;19926;-83
2023/02/17 11:12:28;;;;;;;;;;;;;;;11.18;100.00;-18328.91;5003834;28;19922;-81
2023/02/17 11:14:54;;;;;;;;;;;;;;;11.18;100.00;-18328.91;4997378;28;19918;-82
2023/02/17 11:17:37;;;;;;;;;;;;;;;11.20;100.00;-18329.59;5007370;28;20011;-81
2023/02/17 11:20:11;;;;;;;;;;;;;;;11.20;100.00;-18329.47;5002513;28;19980;-81
2023/02/17 11:22:39;;;;;;;;;;;;;;;11.22;100.00;-18330.00;5007180;28;19973;-82
2023/02/17 11:25:18;;;;;;;;;;;;;;;11.24;100.00;-18330.69;5009827;28;19948;-82
2023/02/17 11:27:49;;;;;;;;;;;;;;;11.27;100.00;-18331.38;5010269;28;19922;-82
2023/02/17 11:30:17;;;;;;;;;;;;;;;11.26;100.00;-18331.09;5011887;28;20384;-81
2023/02/17 11:32:42;;;;;;;;;;;;;;;11.27;100.00;-18331.38;5006403;28;19964;-80
2023/02/17 11:35:19;;;;;;;;;;;;;;;11.28;100.00;-18331.66;5009075;28;19930;-82
2023/02/17 11:37:44;;;;;;;;;;;;;;;11.29;100.00;-18331.94;5008952;28;19922;-81
2023/02/17 11:40:22;;;;;;;;;;;;;;;11.32;100.00;-18332.63;5011828;28;19975;-83
2023/02/17 11:42:54;;;;;;;;;;;;;;;11.29;100.00;-18331.94;5011267;28;19917;-83
2023/02/17 11:45:21;;;;;;;;;;;;;;;11.28;100.00;-18331.78;5008870;28;19933;-82
2023/02/17 11:47:52;;;;;;;;;;;;;;;11.27;100.00;-18331.50;5009918;28;19932;-83
2023/02/17 11:50:36;;;;;;;;;;;;;;;11.28;100.00;-18331.66;5007582;28;20008;-81
2023/02/17 11:53:13;;;;;;;;;;;;;;;11.26;100.00;-18331.09;5007594;28;19922;-82
2023/02/17 11:55:47;;;;;;;;;;;;;;;11.23;100.00;-18330.41;5001766;28;19928;-82
2023/02/17 11:58:37;;;;;;;;;;;;;;;11.29;100.00;-18331.94;5009963;28;19933;-81
2023/02/17 12:01:21;;;;;;;;;;;;;;;11.30;100.00;-18332.34;5008928;28;19925;-82
2023/02/17 12:03:52;;;;;;;;;;;;;;;11.29;100.00;-18331.94;5009033;28;20314;-84
2023/02/17 12:06:36;;;;;;;;;;;;;;;11.26;100.00;-18331.09;5006942;28;20016;-82
2023/02/17 12:09:12;;;;;;;;;;;;;;;11.23;100.00;-18330.41;5009459;28;20310;-83
2023/02/17 12:11:53;;;;;;;;;;;;;;;11.28;100.00;-18331.66;5008702;28;19923;-82
2023/02/17 12:14:18;;;;;;;;;;;;;;;11.29;100.00;-18331.94;5008172;28;19947;-82
2023/02/17 12:16:54;;;;;;;;;;;;;;;11.26;100.00;-18331.25;5010749;28;20361;-83
2023/02/17 12:19:19;;;;;;;;;;;;;;;11.29;100.00;-18331.94;5011610;28;19961;-82
2023/02/17 12:21:57;;;;;;;;;;;;;;;11.29;100.00;-18332.06;5012383;28;19984;-82
2023/02/17 12:24:38;;;;;;;;;;;;;;;11.30;100.00;-18332.19;5013860;28;19945;-82
2023/02/17 12:27:03;;;;;;;;;;;;;;;11.30;100.00;-18332.34;5010997;28;19928;-82
2023/02/17 12:29:32;;;;;;;;;;;;;;;11.29;100.00;-18332.06;4999861;28;20036;-81
2023/02/17 12:32:00;;;;;;;;;;;;;;;11.29;100.00;-18331.94;5002704;28;19956;-80
2023/02/17 12:34:48;;;;;;;;;;;;;;;11.28;100.00;-18331.66;5003066;28;19918;-82
2023/02/17 12:37:19;;;;;;;;;;;;;;;11.29;100.00;-18331.94;5021547;28;19918;-82
2023/02/17 12:39:48;;;;;;;;;;;;;;;11.29;100.00;-18332.06;5011236;28;19924;-81
2023/02/17 12:42:23;;;;;;;;;;;;;;;11.27;100.00;-18331.50;5006749;28;19975;-80